sensor_id;sensor_type;location;lat;lon;timestamp;P1;durP1;ratioP1;P2;durP2;ratioP2
16401;SDS011;8310;44.626;11.176;2023-04-08T00:01:04;31.80;;;27.08;;
16401;SDS011;8310;44.626;11.176;2023-04-08T00:03:31;32.47;;;27.50;;
16401;SDS011;8310;44.626;11.176;2023-04-08T00:05:59;35.08;;;28.25;;
16401;SDS011;8310;44.626;11.176;2023-04-08T00:08:27;34.50;;;27.77;;
16401;SDS011;8310;44.626;11.176;2023-04-08T00:10:55;32.08;;;27.83;;
16401;SDS011;8310;44.626;11.176;2023-04-08T00:13:24;33.50;;;27.98;;
16401;SDS011;8310;44.626;11.176;2023-04-08T00:15:52;33.50;;;28.58;;
16401;SDS011;8310;44.626;11.176;2023-04-08T00:18:19;33.13;;;29.38;;
16401;SDS011;8310;44.626;11.176;2023-04-08T00:20:46;37.75;;;29.52;;
16401;SDS011;8310;44.626;11.176;2023-04-08T00:23:14;36.25;;;30.25;;
16401;SDS011;8310;44.626;11.176;2023-04-08T00:25:42;33.85;;;29.05;;
16401;SDS011;8310;44.626;11.176;2023-04-08T00:28:10;35.38;;;29.48;;
16401;SDS011;8310;44.626;11.176;2023-04-08T00:30:38;34.47;;;30.52;;
16401;SDS011;8310;44.626;11.176;2023-04-08T00:33:06;36.50;;;29.50;;
16401;SDS011;8310;44.626;11.176;2023-04-08T00:35:34;35.53;;;30.55;;
16401;SDS011;8310;44.626;11.176;2023-04-08T00:38:02;37.78;;;31.55;;
16401;SDS011;8310;44.626;11.176;2023-04-08T00:40:32;35.53;;;29.50;;
16401;SDS011;8310;44.626;11.176;2023-04-08T00:42:59;38.22;;;29.17;;
16401;SDS011;8310;44.626;11.176;2023-04-08T00:45:27;33.50;;;28.70;;
16401;SDS011;8310;44.626;11.176;2023-04-08T00:47:55;34.28;;;28.88;;
16401;SDS011;8310;44.626;11.176;2023-04-08T00:50:23;33.75;;;28.08;;
16401;SDS011;8310;44.626;11.176;2023-04-08T00:52:51;33.83;;;28.58;;
16401;SDS011;8310;44.626;11.176;2023-04-08T00:55:21;32.42;;;28.15;;
16401;SDS011;8310;44.626;11.176;2023-04-08T00:57:49;33.05;;;28.92;;
16401;SDS011;8310;44.626;11.176;2023-04-08T01:00:17;36.35;;;30.42;;
16401;SDS011;8310;44.626;11.176;2023-04-08T01:02:44;35.97;;;31.05;;
16401;SDS011;8310;44.626;11.176;2023-04-08T01:05:22;35.60;;;29.20;;
16401;SDS011;8310;44.626;11.176;2023-04-08T01:08:02;34.22;;;28.23;;
16401;SDS011;8310;44.626;11.176;2023-04-08T01:10:33;36.28;;;28.92;;
16401;SDS011;8310;44.626;11.176;2023-04-08T01:13:03;35.22;;;29.05;;
16401;SDS011;8310;44.626;11.176;2023-04-08T01:15:32;33.28;;;28.08;;
16401;SDS011;8310;44.626;11.176;2023-04-08T01:18:05;33.85;;;28.05;;
16401;SDS011;8310;44.626;11.176;2023-04-08T01:20:35;34.47;;;28.63;;
16401;SDS011;8310;44.626;11.176;2023-04-08T01:23:06;33.50;;;27.75;;
16401;SDS011;8310;44.626;11.176;2023-04-08T01:25:38;33.90;;;27.80;;
16401;SDS011;8310;44.626;11.176;2023-04-08T01:28:11;32.70;;;27.00;;
16401;SDS011;8310;44.626;11.176;2023-04-08T01:30:41;33.15;;;26.70;;
16401;SDS011;8310;44.626;11.176;2023-04-08T01:33:11;33.78;;;28.25;;
16401;SDS011;8310;44.626;11.176;2023-04-08T01:35:41;32.17;;;27.83;;
16401;SDS011;8310;44.626;11.176;2023-04-08T01:38:10;32.40;;;27.17;;
16401;SDS011;8310;44.626;11.176;2023-04-08T01:40:41;35.05;;;28.65;;
16401;SDS011;8310;44.626;11.176;2023-04-08T01:43:12;30.85;;;26.80;;
16401;SDS011;8310;44.626;11.176;2023-04-08T01:45:41;31.25;;;26.98;;
16401;SDS011;8310;44.626;11.176;2023-04-08T01:48:11;34.40;;;28.42;;
16401;SDS011;8310;44.626;11.176;2023-04-08T01:50:40;32.00;;;27.25;;
16401;SDS011;8310;44.626;11.176;2023-04-08T01:53:08;31.85;;;27.35;;
16401;SDS011;8310;44.626;11.176;2023-04-08T01:55:37;33.38;;;27.40;;
16401;SDS011;8310;44.626;11.176;2023-04-08T01:58:06;32.65;;;27.48;;
16401;SDS011;8310;44.626;11.176;2023-04-08T02:00:39;35.30;;;28.80;;
16401;SDS011;8310;44.626;11.176;2023-04-08T02:03:08;32.95;;;28.38;;
16401;SDS011;8310;44.626;11.176;2023-04-08T02:05:38;31.63;;;26.08;;
16401;SDS011;8310;44.626;11.176;2023-04-08T02:08:06;31.58;;;27.05;;
16401;SDS011;8310;44.626;11.176;2023-04-08T02:10:34;31.58;;;27.42;;
16401;SDS011;8310;44.626;11.176;2023-04-08T02:13:01;30.00;;;26.45;;
16401;SDS011;8310;44.626;11.176;2023-04-08T02:15:29;33.10;;;27.58;;
16401;SDS011;8310;44.626;11.176;2023-04-08T02:18:04;34.78;;;28.15;;
16401;SDS011;8310;44.626;11.176;2023-04-08T02:20:40;29.95;;;25.80;;
16401;SDS011;8310;44.626;11.176;2023-04-08T02:23:11;29.30;;;25.40;;
16401;SDS011;8310;44.626;11.176;2023-04-08T02:25:42;30.13;;;25.13;;
16401;SDS011;8310;44.626;11.176;2023-04-08T02:28:11;30.70;;;26.48;;
16401;SDS011;8310;44.626;11.176;2023-04-08T02:30:40;28.15;;;24.15;;
16401;SDS011;8310;44.626;11.176;2023-04-08T02:33:10;28.50;;;25.10;;
16401;SDS011;8310;44.626;11.176;2023-04-08T02:35:39;31.30;;;25.08;;
16401;SDS011;8310;44.626;11.176;2023-04-08T02:38:07;28.75;;;24.38;;
16401;SDS011;8310;44.626;11.176;2023-04-08T02:40:37;27.58;;;24.45;;
16401;SDS011;8310;44.626;11.176;2023-04-08T02:43:05;28.60;;;24.95;;
16401;SDS011;8310;44.626;11.176;2023-04-08T02:45:34;27.98;;;24.98;;
16401;SDS011;8310;44.626;11.176;2023-04-08T02:48:04;27.95;;;25.00;;
16401;SDS011;8310;44.626;11.176;2023-04-08T02:50:33;27.08;;;24.17;;
16401;SDS011;8310;44.626;11.176;2023-04-08T02:53:01;26.15;;;22.73;;
16401;SDS011;8310;44.626;11.176;2023-04-08T02:55:29;26.48;;;22.52;;
16401;SDS011;8310;44.626;11.176;2023-04-08T02:57:57;31.13;;;23.50;;
16401;SDS011;8310;44.626;11.176;2023-04-08T03:00:24;25.70;;;22.90;;
16401;SDS011;8310;44.626;11.176;2023-04-08T03:02:51;27.95;;;22.73;;
16401;SDS011;8310;44.626;11.176;2023-04-08T03:05:19;27.17;;;22.58;;
16401;SDS011;8310;44.626;11.176;2023-04-08T03:07:48;27.10;;;22.15;;
16401;SDS011;8310;44.626;11.176;2023-04-08T03:10:16;26.80;;;23.42;;
16401;SDS011;8310;44.626;11.176;2023-04-08T03:12:44;30.67;;;22.77;;
16401;SDS011;8310;44.626;11.176;2023-04-08T03:15:11;29.05;;;23.63;;
16401;SDS011;8310;44.626;11.176;2023-04-08T03:17:39;29.35;;;24.45;;
16401;SDS011;8310;44.626;11.176;2023-04-08T03:20:06;31.60;;;23.65;;
16401;SDS011;8310;44.626;11.176;2023-04-08T03:22:34;29.88;;;23.95;;
16401;SDS011;8310;44.626;11.176;2023-04-08T03:25:04;33.42;;;24.90;;
16401;SDS011;8310;44.626;11.176;2023-04-08T03:27:32;33.50;;;25.42;;
16401;SDS011;8310;44.626;11.176;2023-04-08T03:29:59;31.80;;;24.98;;
16401;SDS011;8310;44.626;11.176;2023-04-08T03:32:27;31.65;;;24.95;;
16401;SDS011;8310;44.626;11.176;2023-04-08T03:34:55;31.67;;;25.38;;
16401;SDS011;8310;44.626;11.176;2023-04-08T03:37:22;30.40;;;24.95;;
16401;SDS011;8310;44.626;11.176;2023-04-08T03:39:49;30.85;;;25.10;;
16401;SDS011;8310;44.626;11.176;2023-04-08T03:42:19;29.55;;;24.60;;
16401;SDS011;8310;44.626;11.176;2023-04-08T03:44:46;32.00;;;26.35;;
16401;SDS011;8310;44.626;11.176;2023-04-08T03:47:14;31.75;;;26.38;;
16401;SDS011;8310;44.626;11.176;2023-04-08T03:49:42;30.42;;;25.52;;
16401;SDS011;8310;44.626;11.176;2023-04-08T03:52:09;29.90;;;26.33;;
16401;SDS011;8310;44.626;11.176;2023-04-08T03:54:37;29.75;;;25.38;;
16401;SDS011;8310;44.626;11.176;2023-04-08T03:57:04;28.52;;;24.83;;
16401;SDS011;8310;44.626;11.176;2023-04-08T03:59:34;30.92;;;26.17;;
16401;SDS011;8310;44.626;11.176;2023-04-08T04:02:02;33.67;;;25.15;;
16401;SDS011;8310;44.626;11.176;2023-04-08T04:04:29;29.60;;;24.45;;
16401;SDS011;8310;44.626;11.176;2023-04-08T04:06:57;30.40;;;25.20;;
16401;SDS011;8310;44.626;11.176;2023-04-08T04:09:25;32.63;;;25.77;;
16401;SDS011;8310;44.626;11.176;2023-04-08T04:11:52;31.13;;;25.48;;
16401;SDS011;8310;44.626;11.176;2023-04-08T04:14:20;31.20;;;25.20;;
16401;SDS011;8310;44.626;11.176;2023-04-08T04:16:49;31.98;;;25.65;;
16401;SDS011;8310;44.626;11.176;2023-04-08T04:19:16;32.08;;;25.45;;
16401;SDS011;8310;44.626;11.176;2023-04-08T04:21:44;29.42;;;24.77;;
16401;SDS011;8310;44.626;11.176;2023-04-08T04:24:11;30.05;;;23.80;;
16401;SDS011;8310;44.626;11.176;2023-04-08T04:26:39;32.72;;;26.50;;
16401;SDS011;8310;44.626;11.176;2023-04-08T04:29:06;31.88;;;25.48;;
16401;SDS011;8310;44.626;11.176;2023-04-08T04:31:37;30.23;;;25.15;;
16401;SDS011;8310;44.626;11.176;2023-04-08T04:34:05;32.10;;;25.85;;
16401;SDS011;8310;44.626;11.176;2023-04-08T04:36:33;31.73;;;25.23;;
16401;SDS011;8310;44.626;11.176;2023-04-08T04:39:00;33.42;;;26.38;;
16401;SDS011;8310;44.626;11.176;2023-04-08T04:41:27;33.75;;;27.25;;
16401;SDS011;8310;44.626;11.176;2023-04-08T04:43:55;29.85;;;24.42;;
16401;SDS011;8310;44.626;11.176;2023-04-08T04:46:23;28.85;;;25.45;;
16401;SDS011;8310;44.626;11.176;2023-04-08T04:48:50;31.23;;;25.05;;
16401;SDS011;8310;44.626;11.176;2023-04-08T04:51:19;31.38;;;24.45;;
16401;SDS011;8310;44.626;11.176;2023-04-08T04:53:48;27.00;;;24.02;;
16401;SDS011;8310;44.626;11.176;2023-04-08T04:56:15;30.48;;;25.17;;
16401;SDS011;8310;44.626;11.176;2023-04-08T04:58:43;29.40;;;25.27;;
16401;SDS011;8310;44.626;11.176;2023-04-08T05:01:10;29.05;;;25.02;;
16401;SDS011;8310;44.626;11.176;2023-04-08T05:03:37;29.42;;;23.95;;
16401;SDS011;8310;44.626;11.176;2023-04-08T05:06:05;30.23;;;23.23;;
16401;SDS011;8310;44.626;11.176;2023-04-08T05:08:34;30.30;;;23.10;;
16401;SDS011;8310;44.626;11.176;2023-04-08T05:11:01;25.33;;;21.73;;
16401;SDS011;8310;44.626;11.176;2023-04-08T05:13:28;25.58;;;22.77;;
16401;SDS011;8310;44.626;11.176;2023-04-08T05:15:57;24.02;;;21.30;;
16401;SDS011;8310;44.626;11.176;2023-04-08T05:18:25;23.15;;;20.65;;
16401;SDS011;8310;44.626;11.176;2023-04-08T05:20:53;27.23;;;22.20;;
16401;SDS011;8310;44.626;11.176;2023-04-08T05:23:22;25.65;;;20.92;;
16401;SDS011;8310;44.626;11.176;2023-04-08T05:25:50;25.30;;;21.17;;
16401;SDS011;8310;44.626;11.176;2023-04-08T05:28:18;23.73;;;21.20;;
16401;SDS011;8310;44.626;11.176;2023-04-08T05:30:47;23.92;;;20.23;;
16401;SDS011;8310;44.626;11.176;2023-04-08T05:33:15;23.25;;;20.33;;
16401;SDS011;8310;44.626;11.176;2023-04-08T05:35:42;22.23;;;19.15;;
16401;SDS011;8310;44.626;11.176;2023-04-08T05:38:10;19.92;;;17.83;;
16401;SDS011;8310;44.626;11.176;2023-04-08T05:40:37;20.65;;;18.45;;
16401;SDS011;8310;44.626;11.176;2023-04-08T05:43:06;19.90;;;17.58;;
16401;SDS011;8310;44.626;11.176;2023-04-08T05:45:34;18.73;;;16.70;;
16401;SDS011;8310;44.626;11.176;2023-04-08T05:48:01;19.67;;;17.58;;
16401;SDS011;8310;44.626;11.176;2023-04-08T05:50:29;19.23;;;17.23;;
16401;SDS011;8310;44.626;11.176;2023-04-08T05:52:56;18.98;;;17.08;;
16401;SDS011;8310;44.626;11.176;2023-04-08T05:55:24;20.15;;;18.02;;
16401;SDS011;8310;44.626;11.176;2023-04-08T05:57:52;19.73;;;17.77;;
16401;SDS011;8310;44.626;11.176;2023-04-08T06:00:21;20.33;;;18.27;;
16401;SDS011;8310;44.626;11.176;2023-04-08T06:02:48;20.13;;;18.23;;
16401;SDS011;8310;44.626;11.176;2023-04-08T06:05:15;19.95;;;17.85;;
16401;SDS011;8310;44.626;11.176;2023-04-08T06:07:43;21.05;;;18.83;;
16401;SDS011;8310;44.626;11.176;2023-04-08T06:10:11;19.60;;;17.50;;
16401;SDS011;8310;44.626;11.176;2023-04-08T06:12:39;20.02;;;17.70;;
16401;SDS011;8310;44.626;11.176;2023-04-08T06:15:07;19.48;;;17.42;;
16401;SDS011;8310;44.626;11.176;2023-04-08T06:17:37;20.25;;;18.10;;
16401;SDS011;8310;44.626;11.176;2023-04-08T06:20:05;20.40;;;18.30;;
16401;SDS011;8310;44.626;11.176;2023-04-08T06:22:33;20.38;;;18.25;;
16401;SDS011;8310;44.626;11.176;2023-04-08T06:25:01;20.40;;;18.30;;
16401;SDS011;8310;44.626;11.176;2023-04-08T06:27:29;22.30;;;19.98;;
16401;SDS011;8310;44.626;11.176;2023-04-08T06:29:56;23.55;;;18.45;;
16401;SDS011;8310;44.626;11.176;2023-04-08T06:32:25;21.42;;;19.20;;
16401;SDS011;8310;44.626;11.176;2023-04-08T06:34:53;20.85;;;18.77;;
16401;SDS011;8310;44.626;11.176;2023-04-08T06:37:20;22.00;;;19.67;;
16401;SDS011;8310;44.626;11.176;2023-04-08T06:39:48;21.77;;;19.45;;
16401;SDS011;8310;44.626;11.176;2023-04-08T06:42:16;22.08;;;19.88;;
16401;SDS011;8310;44.626;11.176;2023-04-08T06:44:43;22.60;;;19.85;;
16401;SDS011;8310;44.626;11.176;2023-04-08T06:47:11;23.85;;;21.35;;
16401;SDS011;8310;44.626;11.176;2023-04-08T06:49:38;21.63;;;19.30;;
16401;SDS011;8310;44.626;11.176;2023-04-08T06:52:07;22.45;;;20.15;;
16401;SDS011;8310;44.626;11.176;2023-04-08T06:54:35;24.42;;;21.60;;
16401;SDS011;8310;44.626;11.176;2023-04-08T06:57:03;21.98;;;19.70;;
16401;SDS011;8310;44.626;11.176;2023-04-08T06:59:30;24.52;;;21.92;;
16401;SDS011;8310;44.626;11.176;2023-04-08T07:01:57;24.40;;;21.80;;
16401;SDS011;8310;44.626;11.176;2023-04-08T07:04:25;22.02;;;19.83;;
16401;SDS011;8310;44.626;11.176;2023-04-08T07:06:52;24.70;;;22.20;;
16401;SDS011;8310;44.626;11.176;2023-04-08T07:09:21;23.83;;;21.13;;
16401;SDS011;8310;44.626;11.176;2023-04-08T07:11:48;24.77;;;22.17;;
16401;SDS011;8310;44.626;11.176;2023-04-08T07:14:16;23.88;;;21.38;;
16401;SDS011;8310;44.626;11.176;2023-04-08T07:16:43;23.65;;;21.10;;
16401;SDS011;8310;44.626;11.176;2023-04-08T07:19:11;25.63;;;21.80;;
16401;SDS011;8310;44.626;11.176;2023-04-08T07:21:38;23.63;;;21.02;;
16401;SDS011;8310;44.626;11.176;2023-04-08T07:26:36;24.85;;;22.25;;
16401;SDS011;8310;44.626;11.176;2023-04-08T07:29:03;25.13;;;22.23;;
16401;SDS011;8310;44.626;11.176;2023-04-08T07:31:31;25.48;;;22.00;;
16401;SDS011;8310;44.626;11.176;2023-04-08T07:33:58;27.13;;;23.52;;
16401;SDS011;8310;44.626;11.176;2023-04-08T07:36:25;25.48;;;22.70;;
16401;SDS011;8310;44.626;11.176;2023-04-08T07:38:53;25.35;;;22.30;;
16401;SDS011;8310;44.626;11.176;2023-04-08T07:41:21;24.90;;;22.20;;
16401;SDS011;8310;44.626;11.176;2023-04-08T07:43:50;27.48;;;23.48;;
16401;SDS011;8310;44.626;11.176;2023-04-08T07:46:17;28.02;;;22.85;;
16401;SDS011;8310;44.626;11.176;2023-04-08T07:48:45;27.38;;;24.25;;
16401;SDS011;8310;44.626;11.176;2023-04-08T07:51:13;26.15;;;23.45;;
16401;SDS011;8310;44.626;11.176;2023-04-08T07:53:40;26.73;;;23.73;;
16401;SDS011;8310;44.626;11.176;2023-04-08T07:56:10;28.50;;;23.98;;
16401;SDS011;8310;44.626;11.176;2023-04-08T07:58:39;26.23;;;23.02;;
16401;SDS011;8310;44.626;11.176;2023-04-08T08:01:19;25.73;;;22.98;;
16401;SDS011;8310;44.626;11.176;2023-04-08T08:03:47;25.42;;;21.77;;
16401;SDS011;8310;44.626;11.176;2023-04-08T08:06:14;26.23;;;23.52;;
16401;SDS011;8310;44.626;11.176;2023-04-08T08:08:45;26.23;;;23.52;;
16401;SDS011;8310;44.626;11.176;2023-04-08T08:11:13;24.85;;;22.25;;
16401;SDS011;8310;44.626;11.176;2023-04-08T08:13:40;25.52;;;22.63;;
16401;SDS011;8310;44.626;11.176;2023-04-08T08:16:08;25.33;;;22.77;;
16401;SDS011;8310;44.626;11.176;2023-04-08T08:18:37;24.60;;;21.13;;
16401;SDS011;8310;44.626;11.176;2023-04-08T08:21:04;24.27;;;21.67;;
16401;SDS011;8310;44.626;11.176;2023-04-08T08:23:32;24.00;;;21.38;;
16401;SDS011;8310;44.626;11.176;2023-04-08T08:26:00;21.58;;;19.27;;
16401;SDS011;8310;44.626;11.176;2023-04-08T08:28:31;21.80;;;19.40;;
16401;SDS011;8310;44.626;11.176;2023-04-08T08:30:58;20.92;;;18.80;;
16401;SDS011;8310;44.626;11.176;2023-04-08T08:33:26;21.58;;;19.33;;
16401;SDS011;8310;44.626;11.176;2023-04-08T08:35:56;21.35;;;19.13;;
16401;SDS011;8310;44.626;11.176;2023-04-08T08:38:23;22.15;;;18.88;;
16401;SDS011;8310;44.626;11.176;2023-04-08T08:40:52;20.23;;;18.02;;
16401;SDS011;8310;44.626;11.176;2023-04-08T08:43:21;22.27;;;20.00;;
16401;SDS011;8310;44.626;11.176;2023-04-08T08:45:49;18.30;;;16.40;;
16401;SDS011;8310;44.626;11.176;2023-04-08T08:48:17;18.77;;;16.90;;
16401;SDS011;8310;44.626;11.176;2023-04-08T08:50:44;18.33;;;16.63;;
16401;SDS011;8310;44.626;11.176;2023-04-08T08:53:14;20.90;;;18.70;;
16401;SDS011;8310;44.626;11.176;2023-04-08T08:55:41;20.55;;;18.35;;
16401;SDS011;8310;44.626;11.176;2023-04-08T08:58:09;21.17;;;18.67;;
16401;SDS011;8310;44.626;11.176;2023-04-08T09:00:37;21.83;;;19.65;;
16401;SDS011;8310;44.626;11.176;2023-04-08T09:03:16;20.40;;;18.27;;
16401;SDS011;8310;44.626;11.176;2023-04-08T09:05:47;19.35;;;17.40;;
16401;SDS011;8310;44.626;11.176;2023-04-08T09:08:27;21.27;;;19.02;;
16401;SDS011;8310;44.626;11.176;2023-04-08T09:11:09;19.65;;;17.70;;
16401;SDS011;8310;44.626;11.176;2023-04-08T09:13:39;17.42;;;15.75;;
16401;SDS011;8310;44.626;11.176;2023-04-08T09:16:10;19.00;;;17.17;;
16401;SDS011;8310;44.626;11.176;2023-04-08T09:18:40;18.75;;;16.75;;
16401;SDS011;8310;44.626;11.176;2023-04-08T09:21:08;18.45;;;16.67;;
16401;SDS011;8310;44.626;11.176;2023-04-08T09:23:47;17.10;;;15.50;;
16401;SDS011;8310;44.626;11.176;2023-04-08T09:26:17;18.77;;;17.08;;
16401;SDS011;8310;44.626;11.176;2023-04-08T09:28:56;19.40;;;17.52;;
16401;SDS011;8310;44.626;11.176;2023-04-08T09:31:25;18.40;;;16.50;;
16401;SDS011;8310;44.626;11.176;2023-04-08T09:33:54;18.65;;;16.75;;
16401;SDS011;8310;44.626;11.176;2023-04-08T09:36:23;17.55;;;15.80;;
16401;SDS011;8310;44.626;11.176;2023-04-08T09:38:53;18.27;;;16.40;;
16401;SDS011;8310;44.626;11.176;2023-04-08T09:41:20;19.15;;;15.77;;
16401;SDS011;8310;44.626;11.176;2023-04-08T09:43:48;16.48;;;14.88;;
16401;SDS011;8310;44.626;11.176;2023-04-08T09:46:27;17.95;;;16.05;;
16401;SDS011;8310;44.626;11.176;2023-04-08T09:49:00;16.30;;;14.68;;
16401;SDS011;8310;44.626;11.176;2023-04-08T09:51:32;15.27;;;13.93;;
16401;SDS011;8310;44.626;11.176;2023-04-08T09:54:09;14.68;;;13.18;;
16401;SDS011;8310;44.626;11.176;2023-04-08T09:56:40;14.65;;;13.15;;
16401;SDS011;8310;44.626;11.176;2023-04-08T09:59:17;15.30;;;14.00;;
16401;SDS011;8310;44.626;11.176;2023-04-08T10:01:49;15.15;;;13.73;;
16401;SDS011;8310;44.626;11.176;2023-04-08T10:04:20;14.23;;;12.65;;
16401;SDS011;8310;44.626;11.176;2023-04-08T10:06:51;14.43;;;13.25;;
16401;SDS011;8310;44.626;11.176;2023-04-08T10:09:24;14.95;;;13.65;;
16401;SDS011;8310;44.626;11.176;2023-04-08T10:11:54;13.38;;;12.18;;
16401;SDS011;8310;44.626;11.176;2023-04-08T10:14:21;14.15;;;12.70;;
16401;SDS011;8310;44.626;11.176;2023-04-08T10:16:55;12.38;;;11.27;;
16401;SDS011;8310;44.626;11.176;2023-04-08T10:19:52;12.77;;;11.55;;
16401;SDS011;8310;44.626;11.176;2023-04-08T10:25:30;12.77;;;11.10;;
16401;SDS011;8310;44.626;11.176;2023-04-08T10:27:59;11.77;;;10.73;;
16401;SDS011;8310;44.626;11.176;2023-04-08T10:30:43;12.43;;;11.50;;
16401;SDS011;8310;44.626;11.176;2023-04-08T10:33:11;13.95;;;12.48;;
16401;SDS011;8310;44.626;11.176;2023-04-08T10:35:41;13.63;;;12.43;;
16401;SDS011;8310;44.626;11.176;2023-04-08T10:38:11;12.90;;;11.75;;
16401;SDS011;8310;44.626;11.176;2023-04-08T10:40:40;12.02;;;10.82;;
16401;SDS011;8310;44.626;11.176;2023-04-08T10:43:08;12.07;;;10.90;;
16401;SDS011;8310;44.626;11.176;2023-04-08T10:45:37;12.13;;;10.73;;
16401;SDS011;8310;44.626;11.176;2023-04-08T10:48:11;11.43;;;10.43;;
16401;SDS011;8310;44.626;11.176;2023-04-08T10:50:43;11.20;;;10.18;;
16401;SDS011;8310;44.626;11.176;2023-04-08T10:53:22;11.73;;;10.57;;
16401;SDS011;8310;44.626;11.176;2023-04-08T10:55:55;10.75;;;9.88;;
16401;SDS011;8310;44.626;11.176;2023-04-08T10:58:29;11.32;;;10.32;;
16401;SDS011;8310;44.626;11.176;2023-04-08T11:01:01;11.65;;;10.55;;
16401;SDS011;8310;44.626;11.176;2023-04-08T11:03:31;12.48;;;11.40;;
16401;SDS011;8310;44.626;11.176;2023-04-08T11:05:59;11.68;;;10.35;;
16401;SDS011;8310;44.626;11.176;2023-04-08T11:08:30;11.10;;;10.10;;
16401;SDS011;8310;44.626;11.176;2023-04-08T11:10:59;10.77;;;9.88;;
16401;SDS011;8310;44.626;11.176;2023-04-08T11:13:27;9.45;;;8.73;;
16401;SDS011;8310;44.626;11.176;2023-04-08T11:15:55;9.90;;;8.90;;
16401;SDS011;8310;44.626;11.176;2023-04-08T11:18:24;10.80;;;9.75;;
16401;SDS011;8310;44.626;11.176;2023-04-08T11:20:52;10.68;;;9.63;;
16401;SDS011;8310;44.626;11.176;2023-04-08T11:23:19;9.35;;;8.48;;
16401;SDS011;8310;44.626;11.176;2023-04-08T11:25:48;9.02;;;8.25;;
16401;SDS011;8310;44.626;11.176;2023-04-08T11:28:17;9.27;;;8.60;;
16401;SDS011;8310;44.626;11.176;2023-04-08T11:30:45;8.63;;;7.78;;
16401;SDS011;8310;44.626;11.176;2023-04-08T11:33:13;9.95;;;9.00;;
16401;SDS011;8310;44.626;11.176;2023-04-08T11:35:40;9.35;;;8.38;;
16401;SDS011;8310;44.626;11.176;2023-04-08T11:38:09;8.70;;;7.95;;
16401;SDS011;8310;44.626;11.176;2023-04-08T11:40:37;8.77;;;8.05;;
16401;SDS011;8310;44.626;11.176;2023-04-08T11:43:08;9.90;;;9.02;;
16401;SDS011;8310;44.626;11.176;2023-04-08T11:45:38;8.20;;;7.38;;
16401;SDS011;8310;44.626;11.176;2023-04-08T11:48:09;8.43;;;7.72;;
16401;SDS011;8310;44.626;11.176;2023-04-08T11:50:37;7.30;;;6.60;;
16401;SDS011;8310;44.626;11.176;2023-04-08T11:53:14;9.00;;;8.20;;
16401;SDS011;8310;44.626;11.176;2023-04-08T11:55:43;7.70;;;7.00;;
16401;SDS011;8310;44.626;11.176;2023-04-08T11:58:11;7.75;;;6.90;;
16401;SDS011;8310;44.626;11.176;2023-04-08T12:00:40;7.53;;;6.82;;
16401;SDS011;8310;44.626;11.176;2023-04-08T12:03:08;7.72;;;7.00;;
16401;SDS011;8310;44.626;11.176;2023-04-08T12:05:36;7.50;;;6.90;;
16401;SDS011;8310;44.626;11.176;2023-04-08T12:08:03;7.70;;;7.07;;
16401;SDS011;8310;44.626;11.176;2023-04-08T12:10:30;7.97;;;7.28;;
16401;SDS011;8310;44.626;11.176;2023-04-08T12:12:58;7.75;;;7.05;;
16401;SDS011;8310;44.626;11.176;2023-04-08T12:15:26;7.28;;;6.75;;
16401;SDS011;8310;44.626;11.176;2023-04-08T12:17:55;8.57;;;7.88;;
16401;SDS011;8310;44.626;11.176;2023-04-08T12:20:22;8.50;;;7.72;;
16401;SDS011;8310;44.626;11.176;2023-04-08T12:22:49;8.15;;;7.43;;
16401;SDS011;8310;44.626;11.176;2023-04-08T12:25:17;8.20;;;7.43;;
16401;SDS011;8310;44.626;11.176;2023-04-08T12:27:44;8.90;;;8.10;;
16401;SDS011;8310;44.626;11.176;2023-04-08T12:30:11;9.70;;;8.80;;
16401;SDS011;8310;44.626;11.176;2023-04-08T12:32:39;8.27;;;7.45;;
16401;SDS011;8310;44.626;11.176;2023-04-08T12:35:08;8.57;;;7.80;;
16401;SDS011;8310;44.626;11.176;2023-04-08T12:37:37;8.68;;;7.78;;
16401;SDS011;8310;44.626;11.176;2023-04-08T12:40:05;7.63;;;6.93;;
16401;SDS011;8310;44.626;11.176;2023-04-08T12:42:34;7.82;;;7.28;;
16401;SDS011;8310;44.626;11.176;2023-04-08T12:45:01;7.82;;;7.22;;
16401;SDS011;8310;44.626;11.176;2023-04-08T12:47:29;7.97;;;7.28;;
16401;SDS011;8310;44.626;11.176;2023-04-08T12:49:57;7.55;;;6.93;;
16401;SDS011;8310;44.626;11.176;2023-04-08T12:52:26;7.72;;;7.13;;
16401;SDS011;8310;44.626;11.176;2023-04-08T12:54:53;8.80;;;8.00;;
16401;SDS011;8310;44.626;11.176;2023-04-08T12:57:21;9.00;;;8.30;;
16401;SDS011;8310;44.626;11.176;2023-04-08T12:59:48;7.15;;;6.55;;
16401;SDS011;8310;44.626;11.176;2023-04-08T13:02:16;6.72;;;3.90;;
16401;SDS011;8310;44.626;11.176;2023-04-08T13:04:44;10.40;;;4.10;;
16401;SDS011;8310;44.626;11.176;2023-04-08T13:07:17;7.20;;;4.85;;
16401;SDS011;8310;44.626;11.176;2023-04-08T13:09:46;5.28;;;4.78;;
16401;SDS011;8310;44.626;11.176;2023-04-08T13:12:14;5.90;;;4.70;;
16401;SDS011;8310;44.626;11.176;2023-04-08T13:14:41;5.85;;;5.03;;
16401;SDS011;8310;44.626;11.176;2023-04-08T13:17:08;5.03;;;4.57;;
16401;SDS011;8310;44.626;11.176;2023-04-08T13:19:36;5.10;;;4.63;;
16401;SDS011;8310;44.626;11.176;2023-04-08T13:22:03;5.10;;;4.80;;
16401;SDS011;8310;44.626;11.176;2023-04-08T13:24:31;4.68;;;4.28;;
16401;SDS011;8310;44.626;11.176;2023-04-08T13:27:00;5.22;;;4.82;;
16401;SDS011;8310;44.626;11.176;2023-04-08T13:29:27;6.32;;;5.10;;
16401;SDS011;8310;44.626;11.176;2023-04-08T13:31:55;5.00;;;4.60;;
16401;SDS011;8310;44.626;11.176;2023-04-08T13:34:22;5.13;;;4.70;;
16401;SDS011;8310;44.626;11.176;2023-04-08T13:36:49;4.82;;;4.53;;
16401;SDS011;8310;44.626;11.176;2023-04-08T13:39:17;4.93;;;4.60;;
16401;SDS011;8310;44.626;11.176;2023-04-08T13:41:47;5.07;;;4.68;;
16401;SDS011;8310;44.626;11.176;2023-04-08T13:44:16;5.57;;;5.18;;
16401;SDS011;8310;44.626;11.176;2023-04-08T13:46:44;4.93;;;4.50;;
16401;SDS011;8310;44.626;11.176;2023-04-08T13:49:12;4.20;;;3.95;;
16401;SDS011;8310;44.626;11.176;2023-04-08T13:51:40;4.38;;;4.07;;
16401;SDS011;8310;44.626;11.176;2023-04-08T13:54:08;3.95;;;3.75;;
16401;SDS011;8310;44.626;11.176;2023-04-08T13:56:36;3.70;;;3.40;;
16401;SDS011;8310;44.626;11.176;2023-04-08T13:59:03;4.28;;;3.88;;
16401;SDS011;8310;44.626;11.176;2023-04-08T14:01:32;4.32;;;3.92;;
16401;SDS011;8310;44.626;11.176;2023-04-08T14:04:00;3.78;;;3.58;;
16401;SDS011;8310;44.626;11.176;2023-04-08T14:06:28;4.47;;;4.10;;
16401;SDS011;8310;44.626;11.176;2023-04-08T14:08:56;5.40;;;5.00;;
16401;SDS011;8310;44.626;11.176;2023-04-08T14:11:23;10.68;;;5.20;;
16401;SDS011;8310;44.626;11.176;2023-04-08T14:13:51;5.25;;;4.85;;
16401;SDS011;8310;44.626;11.176;2023-04-08T14:16:19;5.43;;;4.97;;
16401;SDS011;8310;44.626;11.176;2023-04-08T14:18:49;5.53;;;5.03;;
16401;SDS011;8310;44.626;11.176;2023-04-08T14:21:16;5.47;;;5.07;;
16401;SDS011;8310;44.626;11.176;2023-04-08T14:23:44;5.82;;;5.32;;
16401;SDS011;8310;44.626;11.176;2023-04-08T14:26:16;5.47;;;4.97;;
16401;SDS011;8310;44.626;11.176;2023-04-08T14:28:44;15.50;;;7.03;;
16401;SDS011;8310;44.626;11.176;2023-04-08T14:31:11;5.00;;;4.55;;
16401;SDS011;8310;44.626;11.176;2023-04-08T14:33:39;5.75;;;5.25;;
16401;SDS011;8310;44.626;11.176;2023-04-08T14:36:08;5.15;;;4.78;;
16401;SDS011;8310;44.626;11.176;2023-04-08T14:38:36;5.03;;;4.63;;
16401;SDS011;8310;44.626;11.176;2023-04-08T14:41:03;5.32;;;4.82;;
16401;SDS011;8310;44.626;11.176;2023-04-08T14:43:30;5.68;;;5.18;;